Time;durP1;ratioP1;P1;durP2;ratioP2;P2;SDS_P1;SDS_P2;PMS_P1;PMS_P2;Temp;Humidity;BMP_temperature;BMP_pressure;BME280_temperature;BME280_humidity;BME280_pressure;Samples;Min_cycle;Max_cycle;Signal;HPM_P1;HPM_P2
2022/08/14 00:01:24;;;;;;;;;;;;;;;20.68;71.00;94114.53;4164688;28;20057;-68
2022/08/14 00:03:30;;;;;;;21.48;16.70;;;;;;;20.67;71.11;94124.34;4159986;28;19928;-69
2022/08/14 00:05:32;;;;;;;19.67;15.88;;;;;;;20.62;71.02;94117.09;4166020;28;20103;-67
2022/08/14 00:07:36;;;;;;;24.77;16.08;;;;;;;20.63;71.20;94118.72;4165002;28;20308;-67
2022/08/14 00:09:43;;;;;;;21.90;16.30;;;;;;;20.66;71.14;94112.09;4151939;28;20077;-67
2022/08/14 00:12:04;;;;;;;18.58;16.05;;;;;;;20.64;71.06;94114.19;4168652;28;20603;-69
2022/08/14 00:14:26;;;;;;;17.08;14.57;;;;;;;20.47;69.48;94103.44;4186557;28;20070;-68
2022/08/14 00:16:30;;;;;;;18.55;14.80;;;;;;;20.08;70.02;94105.81;4174657;28;20045;-67
2022/08/14 00:18:45;;;;;;;19.23;14.45;;;;;;;19.97;70.83;94098.66;4163940;28;20065;-67
2022/08/14 00:21:08;;;;;;;21.85;14.70;;;;;;;19.93;71.40;94092.97;4167588;28;20085;-67
2022/08/14 00:23:13;;;;;;;17.58;15.15;;;;;;;19.94;71.60;94096.44;4175139;28;20056;-69
2022/08/14 00:25:18;;;;;;;19.85;14.65;;;;;;;20.00;71.58;94104.31;4168413;28;20044;-67
2022/08/14 00:27:21;;;;;;;17.35;14.85;;;;;;;20.07;71.37;94103.38;4153665;28;20420;-68
2022/08/14 00:29:23;;;;;;;17.27;15.40;;;;;;;20.09;70.91;94098.63;4172448;28;20049;-68
2022/08/14 00:31:29;;;;;;;22.20;16.15;;;;;;;20.12;70.97;94108.81;4187883;28;20174;-68
2022/08/14 00:33:45;;;;;;;20.10;17.85;;;;;;;20.11;71.26;94101.88;4176034;28;20049;-67
2022/08/14 00:35:53;;;;;;;24.08;17.08;;;;;;;20.14;71.33;94106.75;4162608;28;20059;-69
2022/08/14 00:38:17;;;;;;;18.77;15.88;;;;;;;20.19;71.20;94098.84;4174143;28;20052;-68
2022/08/14 00:40:20;;;;;;;20.10;15.15;;;;;;;20.20;71.06;94106.63;4173702;28;20091;-67
2022/08/14 00:42:36;;;;;;;17.00;15.20;;;;;;;20.18;70.96;94105.25;4176389;28;20045;-68
2022/08/14 00:44:57;;;;;;;18.08;14.43;;;;;;;20.06;71.16;94097.25;4177475;28;20559;-66
2022/08/14 00:47:07;;;;;;;16.88;15.07;;;;;;;19.63;72.19;94107.16;4179855;28;20515;-68
2022/08/14 00:49:11;;;;;;;17.02;14.75;;;;;;;19.41;73.55;94100.78;4159300;28;20441;-69
2022/08/14 00:51:15;;;;;;;16.88;14.68;;;;;;;19.26;74.32;94095.88;4174695;28;20053;-69
2022/08/14 00:53:17;;;;;;;21.35;14.75;;;;;;;19.17;74.42;94091.94;4164581;28;20052;-68
2022/08/14 00:55:21;;;;;;;20.13;16.63;;;;;;;19.14;74.69;94092.38;4159779;28;20068;-69
2022/08/14 00:57:29;;;;;;;18.27;15.77;;;;;;;19.19;74.88;94088.03;4167568;28;20528;-68
2022/08/14 00:59:32;;;;;;;21.80;15.93;;;;;;;19.24;75.04;94087.34;4175306;28;20063;-69
2022/08/14 01:01:37;;;;;;;20.05;16.30;;;;;;;19.30;74.64;94085.63;4174037;28;20077;-68
2022/08/14 01:03:41;;;;;;;19.73;16.65;;;;;;;19.39;74.62;94079.75;4161969;28;20473;-67
2022/08/14 01:05:48;;;;;;;17.90;15.68;;;;;;;19.48;74.23;94079.41;4161906;28;20125;-69
2022/08/14 01:07:56;;;;;;;20.35;15.75;;;;;;;19.57;73.58;94078.03;4143446;28;20053;-67
2022/08/14 01:10:03;;;;;;;21.05;16.23;;;;;;;19.68;73.50;94079.91;4165701;28;20053;-68
2022/08/14 01:12:06;;;;;;;20.13;16.20;;;;;;;19.74;73.17;94075.53;4154057;28;20109;-67
2022/08/14 01:14:08;;;;;;;21.90;18.08;;;;;;;19.74;72.53;94065.72;4175982;28;20041;-68
2022/08/14 01:16:29;;;;;;;18.13;15.68;;;;;;;19.80;72.54;94071.97;4177961;28;20084;-69
2022/08/14 01:21:05;;;;;;;25.77;19.42;;;;;;;19.85;71.79;94064.09;4179400;28;20713;-67
2022/08/14 01:23:10;;;;;;;24.60;19.33;;;;;;;19.88;71.73;94060.19;4185362;28;20396;-68
2022/08/14 01:25:17;;;;;;;22.00;17.85;;;;;;;19.89;71.63;94054.63;4159604;28;20508;-67
2022/08/14 01:27:21;;;;;;;20.40;17.85;;;;;;;19.84;71.78;94057.16;4159606;28;20100;-69
2022/08/14 01:29:26;;;;;;;24.55;19.02;;;;;;;19.78;72.08;94058.09;4161652;28;20081;-69
2022/08/14 01:33:54;;;;;;;23.55;18.75;;;;;;;19.62;72.42;94060.38;4163491;28;20692;-67
2022/08/14 01:36:20;;;;;;;22.15;18.65;;;;;;;19.50;73.07;94072.81;4172749;28;20044;-67
2022/08/14 01:38:24;;;;;;;21.25;17.65;;;;;;;19.39;73.87;94066.47;4161678;28;20057;-68
2022/08/14 01:40:28;;;;;;;25.03;18.90;;;;;;;19.40;74.16;94068.09;4175415;28;20060;-69
2022/08/14 01:42:34;;;;;;;21.83;17.58;;;;;;;19.33;74.31;94066.56;4174458;28;20378;-70
2022/08/14 01:44:37;;;;;;;21.02;18.55;;;;;;;19.31;74.65;94068.66;4177640;28;20045;-68
2022/08/14 01:46:43;;;;;;;26.52;18.02;;;;;;;19.32;74.83;94067.63;4170180;28;20409;-69
2022/08/14 01:48:56;;;;;;;23.15;19.13;;;;;;;19.18;75.32;94065.16;4176265;28;20122;-67
2022/08/14 01:51:01;;;;;;;25.10;20.08;;;;;;;19.05;75.73;94064.56;4173887;28;20088;-68
2022/08/14 01:53:03;;;;;;;22.23;19.35;;;;;;;19.02;75.83;94055.19;4141828;28;20065;-68
2022/08/14 01:55:16;;;;;;;22.55;19.30;;;;;;;18.99;76.14;94050.34;4159883;28;20136;-68
2022/08/14 01:57:18;;;;;;;23.25;19.33;;;;;;;19.02;76.15;94055.19;4173050;28;20049;-69
2022/08/14 01:59:27;;;;;;;21.77;19.45;;;;;;;19.12;76.07;94059.94;4175775;28;20060;-70
2022/08/14 02:01:39;;;;;;;26.17;20.25;;;;;;;18.95;75.98;94055.31;4168657;28;20057;-68
2022/08/14 02:03:56;;;;;;;24.58;19.63;;;;;;;18.87;76.31;94058.28;4164644;28;20054;-68
2022/08/14 02:05:59;;;;;;;19.38;17.38;;;;;;;18.60;77.71;94055.94;4161642;28;20107;-70
2022/08/14 02:08:21;;;;;;;20.63;17.33;;;;;;;18.11;79.79;94059.59;4162529;28;20053;-69
2022/08/14 02:10:40;;;;;;;19.30;17.17;;;;;;;18.03;80.39;94059.91;4176014;28;20048;-68
2022/08/14 02:12:48;;;;;;;24.02;17.92;;;;;;;18.12;80.60;94058.56;4170905;28;20451;-69
2022/08/14 02:14:59;;;;;;;19.98;16.60;;;;;;;18.16;79.40;94055.25;4161387;28;20129;-69
2022/08/14 02:17:05;;;;;;;21.88;17.13;;;;;;;17.99;79.45;94060.34;4161199;28;20338;-69
2022/08/14 02:19:13;;;;;;;21.52;17.05;;;;;;;17.92;79.57;94059.59;4154068;28;20500;-67
2022/08/14 02:21:17;;;;;;;20.00;16.02;;;;;;;17.82;80.32;94054.00;4175066;28;20049;-69
2022/08/14 02:23:24;;;;;;;20.85;16.42;;;;;;;17.95;80.54;94053.03;4165810;28;20115;-68
2022/08/14 02:25:33;;;;;;;22.70;17.95;;;;;;;18.14;79.97;94048.56;4160140;28;20052;-68
2022/08/14 02:27:36;;;;;;;19.95;17.77;;;;;;;18.12;79.39;94045.31;4161145;28;20056;-69
2022/08/14 02:29:58;;;;;;;19.38;17.17;;;;;;;18.05;79.45;94041.91;4167852;28;20056;-68
2022/08/14 02:32:03;;;;;;;21.83;16.33;;;;;;;18.18;79.67;94045.25;4176511;28;20513;-70
2022/08/14 02:34:14;;;;;;;18.73;15.98;;;;;;;18.25;78.34;94047.00;4160380;28;20045;-68
2022/08/14 02:36:26;;;;;;;19.48;16.88;;;;;;;18.39;78.50;94049.28;4170218;28;20483;-68
2022/08/14 02:38:48;;;;;;;22.77;17.88;;;;;;;18.07;78.24;94043.34;4160207;28;20049;-69
2022/08/14 02:40:50;;;;;;;23.48;17.75;;;;;;;17.72;80.00;94045.69;4161110;28;20061;-69
2022/08/14 02:42:52;;;;;;;23.15;17.75;;;;;;;17.65;80.99;94048.41;4171566;28;20056;-70
2022/08/14 02:44:58;;;;;;;21.48;17.80;;;;;;;17.71;81.27;94042.25;4165375;28;20045;-67
2022/08/14 02:47:01;;;;;;;24.45;19.25;;;;;;;17.91;80.66;94052.66;4158309;28;20045;-68
2022/08/14 02:49:07;;;;;;;27.17;20.77;;;;;;;17.84;80.35;94048.47;4168411;28;20061;-68
2022/08/14 02:51:13;;;;;;;25.10;19.40;;;;;;;17.79;80.75;94044.63;4164969;28;20061;-67
2022/08/14 02:53:14;;;;;;;28.27;18.75;;;;;;;17.64;81.44;94041.50;4175074;28;20281;-70
2022/08/14 02:55:17;;;;;;;25.35;19.77;;;;;;;17.60;82.41;94048.28;4166223;28;20045;-69
2022/08/14 02:57:22;;;;;;;26.15;19.55;;;;;;;17.82;81.88;94040.75;4165519;28;20050;-70
2022/08/14 02:59:41;;;;;;;27.25;19.92;;;;;;;18.06;80.90;94035.59;4167522;28;20130;-69
2022/08/14 03:01:44;;;;;;;25.90;20.13;;;;;;;18.23;79.66;94039.28;4166960;28;20458;-67
2022/08/14 03:03:55;;;;;;;30.55;21.42;;;;;;;18.44;78.87;94048.59;4164599;28;20503;-69
2022/08/14 03:05:57;;;;;;;25.77;19.77;;;;;;;18.58;78.41;94041.28;4166370;28;20046;-68
2022/08/14 03:08:09;;;;;;;27.40;20.77;;;;;;;18.74;77.86;94038.00;4167592;28;20610;-68
2022/08/14 03:10:12;;;;;;;29.23;21.75;;;;;;;18.84;77.15;94045.44;4163217;28;20081;-68
2022/08/14 03:12:33;;;;;;;34.20;23.23;;;;;;;18.91;76.79;94048.03;4171971;28;20057;-68
2022/08/14 03:14:38;;;;;;;35.30;22.77;;;;;;;18.95;76.66;94038.53;4174574;28;20045;-68
2022/08/14 03:16:44;;;;;;;28.08;22.30;;;;;;;18.96;76.62;94050.78;4152707;28;20103;-68
2022/08/14 03:18:59;;;;;;;28.33;22.67;;;;;;;18.97;76.57;94039.97;4175883;28;20045;-68
2022/08/14 03:21:04;;;;;;;28.40;20.55;;;;;;;19.02;76.08;94044.59;4168271;28;20051;-68
2022/08/14 03:23:06;;;;;;;28.90;21.67;;;;;;;19.04;75.99;94045.16;4170892;28;20116;-69
2022/08/14 03:25:10;;;;;;;32.63;21.30;;;;;;;18.53;77.66;94046.47;4164976;28;20073;-69
2022/08/14 03:27:14;;;;;;;29.13;21.23;;;;;;;18.42;78.38;94048.81;4168687;28;20064;-68
2022/08/14 03:29:19;;;;;;;30.67;22.50;;;;;;;18.19;79.52;94054.00;4151271;28;20063;-68
2022/08/14 03:31:25;;;;;;;31.17;23.50;;;;;;;17.95;80.33;94053.03;4169767;28;20061;-68
2022/08/14 03:33:30;;;;;;;30.48;22.92;;;;;;;17.77;81.30;94061.78;4157005;28;20099;-69
2022/08/14 03:35:40;;;;;;;32.85;24.35;;;;;;;17.47;82.74;94059.00;4163081;28;20488;-68
2022/08/14 03:38:12;;;;;;;31.67;24.27;;;;;;;17.45;82.53;94064.50;4175276;28;20280;-69
2022/08/14 03:40:38;;;;;;;30.15;24.38;;;;;;;17.29;82.90;94063.19;4155899;28;20049;-68
2022/08/14 03:42:40;;;;;;;31.50;25.42;;;;;;;17.09;84.03;94059.88;4162972;28;20052;-68
2022/08/14 03:44:44;;;;;;;31.67;24.73;;;;;;;17.27;83.80;94061.78;4175810;28;20048;-68
2022/08/14 03:47:06;;;;;;;30.77;24.45;;;;;;;17.37;83.61;94067.41;4159089;28;20057;-70
2022/08/14 03:49:09;;;;;;;32.13;24.95;;;;;;;17.60;82.71;94064.16;4158042;28;20052;-67
2022/08/14 03:51:14;;;;;;;29.90;22.55;;;;;;;17.79;80.72;94067.66;4157641;28;20053;-68
2022/08/14 03:53:18;;;;;;;27.98;23.58;;;;;;;17.88;80.28;94065.56;4175185;28;20075;-69
2022/08/14 03:55:20;;;;;;;;;;;;;;;17.86;79.56;94062.31;4142965;28;20046;-67
2022/08/14 03:57:23;;;;;;;25.33;21.80;;;;;;;17.80;80.21;94061.31;4159241;28;20364;-68
2022/08/14 03:59:25;;;;;;;27.35;23.83;;;;;;;17.57;80.80;94049.53;4159570;28;20060;-69
2022/08/14 04:01:29;;;;;;;28.13;23.77;;;;;;;17.53;81.17;94056.28;4172719;28;20563;-67
2022/08/14 04:03:42;;;;;;;27.58;23.15;;;;;;;17.50;81.26;94062.00;4159658;28;20096;-68
2022/08/14 04:05:44;;;;;;;30.77;22.65;;;;;;;17.53;81.96;94061.56;4159122;28;20144;-69
2022/08/14 04:07:50;;;;;;;28.70;22.45;;;;;;;17.72;81.75;94058.94;4170349;28;20063;-69
2022/08/14 04:10:12;;;;;;;29.60;22.92;;;;;;;18.03;80.78;94062.56;4174838;28;20045;-68
2022/08/14 04:12:18;;;;;;;28.25;21.77;;;;;;;18.26;79.75;94062.69;4158412;28;20537;-68
2022/08/14 04:14:27;;;;;;;27.50;23.48;;;;;;;18.46;78.21;94064.31;4173039;28;20037;-69
2022/08/14 04:16:30;;;;;;;26.67;22.90;;;;;;;18.59;77.14;94062.28;4177075;28;20435;-68
2022/08/14 04:18:33;;;;;;;27.13;23.20;;;;;;;18.77;76.92;94072.03;4160354;28;20065;-67
2022/08/14 04:20:35;;;;;;;27.38;23.63;;;;;;;18.85;76.08;94062.19;4160052;28;20075;-68
2022/08/14 04:22:55;;;;;;;28.38;23.85;;;;;;;18.81;75.86;94064.47;4175313;28;20049;-69
2022/08/14 04:24:58;;;;;;;28.55;23.85;;;;;;;18.85;76.10;94070.16;4154531;28;20049;-67
2022/08/14 04:27:10;;;;;;;32.58;24.60;;;;;;;18.90;75.53;94071.06;4178994;28;20148;-68
2022/08/14 04:29:12;;;;;;;28.08;23.25;;;;;;;18.93;75.06;94060.03;4160622;28;20096;-70
2022/08/14 04:31:18;;;;;;;30.15;22.98;;;;;;;19.00;74.97;94065.25;4176933;28;20602;-69
2022/08/14 04:33:41;;;;;;;30.30;22.65;;;;;;;19.12;75.13;94071.41;4162471;28;20139;-68
2022/08/14 04:35:42;;;;;;;28.85;23.15;;;;;;;19.22;74.41;94066.31;4160851;28;20470;-69
2022/08/14 04:45:23;;;;;;;27.63;20.67;;;;;;;19.50;73.29;94070.16;4174368;28;20091;-68
2022/08/14 04:49:47;;;;;;;26.08;21.00;;;;;;;19.61;72.26;94073.88;4178159;28;20059;-68
2022/08/14 04:51:59;;;;;;;27.90;22.02;;;;;;;19.61;72.34;94074.69;4160589;28;20053;-68
2022/08/14 04:54:15;;;;;;;24.63;20.50;;;;;;;19.64;72.30;94068.94;4178227;28;20649;-68
2022/08/14 04:56:21;;;;;;;26.50;20.73;;;;;;;19.71;72.05;94063.53;4176581;28;20053;-67
2022/08/14 04:58:35;;;;;;;27.30;20.98;;;;;;;19.76;71.78;94065.47;4176674;28;20139;-69
2022/08/14 05:00:38;;;;;;;27.63;20.60;;;;;;;19.82;72.08;94067.22;4178394;28;20049;-68
2022/08/14 05:02:42;;;;;;;26.60;20.33;;;;;;;19.88;72.10;94063.63;4172352;28;20057;-67
2022/08/14 05:04:44;;;;;;;25.02;19.52;;;;;;;19.91;71.42;94063.16;4177461;28;20429;-69
2022/08/14 05:06:58;;;;;;;23.90;20.35;;;;;;;19.95;71.15;94058.19;4165434;28;20056;-69
2022/08/14 05:09:00;;;;;;;23.77;19.55;;;;;;;19.97;71.09;94056.13;4178043;28;20124;-68
2022/08/14 05:11:03;;;;;;;25.00;20.95;;;;;;;19.96;70.52;94055.31;4176588;28;20482;-67
2022/08/14 05:13:06;;;;;;;26.67;18.90;;;;;;;19.96;70.72;94054.50;4177201;28;20135;-67
2022/08/14 05:15:18;;;;;;;21.95;17.60;;;;;;;19.93;70.60;94053.09;4169367;28;20056;-68
2022/08/14 05:17:25;;;;;;;20.15;17.38;;;;;;;19.90;70.55;94055.44;4172471;28;20053;-69
2022/08/14 05:19:32;;;;;;;18.73;16.73;;;;;;;19.88;70.46;94058.31;4174951;28;20193;-70
2022/08/14 05:21:45;;;;;;;18.73;15.82;;;;;;;19.87;70.44;94056.69;4176283;28;20384;-68
2022/08/14 05:24:01;;;;;;;19.25;17.08;;;;;;;19.87;70.54;94069.97;4177863;28;20060;-69
2022/08/14 05:26:11;;;;;;;21.70;15.53;;;;;;;19.88;70.69;94063.63;4173747;28;20049;-68
2022/08/14 05:28:18;;;;;;;18.67;16.17;;;;;;;19.95;70.66;94069.63;4176866;28;20300;-67
2022/08/14 05:30:21;;;;;;;17.42;15.63;;;;;;;20.00;70.79;94061.78;4176724;28;20057;-68
2022/08/14 05:32:24;;;;;;;18.10;15.95;;;;;;;20.03;70.43;94063.16;4175615;28;20045;-68
2022/08/14 05:34:29;;;;;;;22.20;17.48;;;;;;;20.03;70.53;94060.50;4153102;28;20046;-68
2022/08/14 05:36:33;;;;;;;18.77;16.77;;;;;;;19.98;70.37;94065.69;4171955;28;20116;-68
2022/08/14 05:38:42;;;;;;;18.80;16.38;;;;;;;19.93;70.84;94063.75;4175686;28;20071;-68
2022/08/14 05:40:45;;;;;;;17.70;15.05;;;;;;;19.93;70.77;94058.44;4166239;28;20051;-68
2022/08/14 05:42:47;;;;;;;17.17;13.13;;;;;;;19.91;70.11;94073.78;4173286;28;20088;-69
2022/08/14 05:44:54;;;;;;;14.85;13.25;;;;;;;19.90;70.12;94066.06;4161599;28;20052;-67
2022/08/14 05:46:58;;;;;;;14.68;12.85;;;;;;;19.92;70.24;94067.44;4160769;28;20069;-68
2022/08/14 05:49:01;;;;;;;13.90;12.30;;;;;;;19.92;69.71;94069.28;4163928;28;20064;-68
2022/08/14 05:51:04;;;;;;;12.70;11.43;;;;;;;19.92;69.67;94070.13;4177502;28;20131;-69
2022/08/14 05:53:08;;;;;;;14.73;11.43;;;;;;;19.96;69.19;94070.44;4166902;28;20199;-68
2022/08/14 05:55:10;;;;;;;13.38;11.68;;;;;;;19.90;69.44;94068.72;4161149;28;20124;-66
2022/08/14 05:57:13;;;;;;;11.83;10.63;;;;;;;19.95;69.04;94064.31;4161543;28;20085;-67
2022/08/14 05:59:15;;;;;;;12.05;10.75;;;;;;;19.92;69.04;94063.97;4161594;28;20459;-67
2022/08/14 06:01:20;;;;;;;13.18;11.50;;;;;;;19.91;68.97;94059.69;4161233;28;20045;-67
2022/08/14 06:03:24;;;;;;;12.45;11.18;;;;;;;19.99;69.33;94062.81;4158206;28;20153;-68
2022/08/14 06:05:27;;;;;;;12.43;11.27;;;;;;;20.00;69.26;94071.59;4172196;28;20077;-68
2022/08/14 06:07:30;;;;;;;14.40;11.00;;;;;;;20.05;68.74;94061.09;4169197;28;20440;-68
2022/08/14 06:09:32;;;;;;;14.45;11.27;;;;;;;20.05;68.72;94069.88;4177515;28;20070;-68
2022/08/14 06:11:40;;;;;;;12.10;10.75;;;;;;;20.01;68.32;94076.69;4156306;28;20054;-69
2022/08/14 06:13:44;;;;;;;13.40;10.73;;;;;;;19.88;68.62;94079.59;4149981;28;20049;-68
2022/08/14 06:15:50;;;;;;;12.23;11.02;;;;;;;19.84;68.97;94078.44;4174131;28;20099;-69
2022/08/14 06:17:56;;;;;;;11.57;10.38;;;;;;;19.83;68.95;94077.63;4160141;28;20468;-68
2022/08/14 06:20:00;;;;;;;15.45;10.63;;;;;;;19.86;69.16;94075.56;4176491;28;20127;-68
2022/08/14 06:22:05;;;;;;;11.45;10.25;;;;;;;19.87;68.75;94077.16;4175914;28;20368;-67
2022/08/14 06:24:09;;;;;;;11.40;10.25;;;;;;;19.90;68.74;94079.38;4171395;28;20045;-68
2022/08/14 06:26:20;;;;;;;13.73;10.50;;;;;;;19.86;68.87;94084.31;4164902;28;20052;-68
2022/08/14 06:28:25;;;;;;;12.45;10.32;;;;;;;19.77;68.82;94083.88;4176249;28;20147;-69
2022/08/14 06:30:32;;;;;;;10.95;9.88;;;;;;;19.74;69.19;94080.84;4175896;28;20088;-69
2022/08/14 06:32:48;;;;;;;11.55;10.45;;;;;;;19.59;69.78;94087.38;4166884;28;20185;-68
2022/08/14 06:34:53;;;;;;;11.55;10.43;;;;;;;19.61;69.63;94089.81;4176855;28;20132;-68
2022/08/14 06:37:17;;;;;;;10.75;9.30;;;;;;;19.55;70.20;94083.59;4159448;28;20437;-69
2022/08/14 06:39:19;;;;;;;10.20;9.30;;;;;;;19.60;69.99;94089.03;4160053;28;20057;-68
2022/08/14 06:41:42;;;;;;;9.25;8.35;;;;;;;19.62;69.73;94092.25;4164424;28;20053;-67
2022/08/14 06:44:00;;;;;;;9.85;8.85;;;;;;;19.67;69.41;94085.44;4158781;28;20053;-68
2022/08/14 06:46:02;;;;;;;11.15;9.75;;;;;;;19.72;69.21;94086.38;4176056;28;20045;-69
2022/08/14 06:48:15;;;;;;;10.02;9.02;;;;;;;19.64;69.07;94089.38;4168481;28;20084;-68
2022/08/14 06:50:20;;;;;;;11.33;9.87;;;;;;;19.68;69.56;94087.88;4173118;28;20048;-66
2022/08/14 06:52:28;;;;;;;10.52;9.43;;;;;;;19.18;71.19;94086.38;4174316;28;20360;-68
2022/08/14 06:54:30;;;;;;;8.73;7.82;;;;;;;19.12;71.41;94087.31;4168632;28;20167;-67
2022/08/14 06:56:32;;;;;;;10.35;8.00;;;;;;;19.22;70.32;94089.41;4159422;28;20153;-68
2022/08/14 06:58:35;;;;;;;7.85;7.05;;;;;;;19.34;70.10;94086.78;4162506;28;20049;-68
2022/08/14 07:00:38;;;;;;;8.27;7.38;;;;;;;19.38;69.01;94085.28;4171282;28;20056;-67
2022/08/14 07:07:33;;;;;;;10.65;9.55;;;;;;;19.14;72.24;94089.72;4152157;28;20135;-69
2022/08/14 07:09:36;;;;;;;9.00;7.32;;;;;;;19.10;70.58;94089.41;4162584;28;20185;-67
2022/08/14 07:11:50;;;;;;;7.50;6.68;;;;;;;19.19;70.32;94088.03;4161208;28;20057;-68
2022/08/14 07:13:53;;;;;;;8.20;7.03;;;;;;;19.33;69.65;94099.25;4161051;28;20111;-67
2022/08/14 07:15:56;;;;;;;7.95;7.13;;;;;;;19.18;70.58;94093.56;4170569;28;20084;-68
2022/08/14 07:17:59;;;;;;;7.53;5.88;;;;;;;18.98;70.24;94097.31;4167733;28;20052;-67
2022/08/14 07:20:01;;;;;;;8.90;6.90;;;;;;;18.75;71.37;94087.38;4160942;28;20049;-67
2022/08/14 07:22:03;;;;;;;8.32;7.53;;;;;;;18.78;71.67;94092.28;4162555;28;20057;-71
2022/08/14 07:24:17;;;;;;;;;;;;;;;18.76;72.24;94099.63;4164558;28;20085;-68
2022/08/14 07:26:32;;;;;;;8.93;7.10;;;;;;;18.65;72.20;94089.78;4160742;28;19928;-67
2022/08/14 07:28:36;;;;;;;7.93;7.07;;;;;;;18.55;72.42;94086.84;4161075;28;20079;-70
2022/08/14 07:30:44;;;;;;;8.45;6.78;;;;;;;18.58;72.43;94091.69;4173768;28;20068;-67
2022/08/14 07:32:52;;;;;;;7.45;6.55;;;;;;;18.54;72.75;94090.50;4149963;28;20127;-67
2022/08/14 07:34:55;;;;;;;8.63;6.80;;;;;;;18.59;73.22;94095.97;4164898;28;20519;-69
2022/08/14 07:36:59;;;;;;;;;;;;;;;18.74;73.09;94098.22;4159540;28;20057;-70
2022/08/14 07:39:03;;;;;;;7.75;7.00;;;;;;;18.91;72.58;94093.13;4164765;28;19932;-67
2022/08/14 07:41:14;;;;;;;8.43;6.80;;;;;;;18.85;73.01;94097.50;4175237;28;20111;-66
2022/08/14 07:43:17;;;;;;;11.45;7.72;;;;;;;19.03;72.28;94094.78;4175833;28;20055;-66
2022/08/14 07:45:22;;;;;;;10.82;7.10;;;;;;;18.95;72.04;94095.13;4172218;28;20104;-67
2022/08/14 07:47:24;;;;;;;6.82;6.13;;;;;;;19.11;71.92;94098.97;4175273;28;20044;-69
2022/08/14 07:49:26;;;;;;;7.95;6.72;;;;;;;19.24;71.36;94090.00;4175919;28;20060;-68
2022/08/14 07:51:28;;;;;;;7.43;6.57;;;;;;;19.52;71.26;94102.63;4158264;28;20068;-68
2022/08/14 07:53:39;;;;;;;6.72;5.80;;;;;;;19.81;69.67;94100.97;4161003;28;20171;-68
2022/08/14 07:55:42;;;;;;;6.85;6.15;;;;;;;20.02;68.84;94102.22;4158952;28;20037;-69
2022/08/14 07:57:46;;;;;;;5.78;5.00;;;;;;;20.16;67.20;94100.16;4167422;28;20049;-69
2022/08/14 07:59:52;;;;;;;4.60;4.07;;;;;;;20.28;65.73;94094.00;4163652;28;20053;-70
2022/08/14 08:01:55;;;;;;;5.32;4.13;;;;;;;20.34;64.84;94098.38;4160408;28;20383;-67
2022/08/14 08:04:02;;;;;;;14.07;9.57;;;;;;;20.11;65.50;94099.22;4160031;28;20046;-69
2022/08/14 08:06:17;;;;;;;7.13;3.67;;;;;;;20.17;64.46;94103.59;4171981;28;20484;-69
2022/08/14 08:08:20;;;;;;;4.57;3.30;;;;;;;20.19;63.69;94101.53;4159990;28;20417;-69
2022/08/14 08:10:30;;;;;;;4.32;3.45;;;;;;;20.31;63.30;94101.53;4149086;28;20332;-68
2022/08/14 08:12:54;;;;;;;10.90;8.27;;;;;;;20.21;63.52;94107.41;4148341;28;20053;-69
2022/08/14 08:14:56;;;;;;;;;;;;;;;19.91;64.96;94100.38;4163739;28;20091;-69
2022/08/14 08:17:09;;;;;;;8.50;5.90;;;;;;;19.63;64.91;94104.50;4172918;28;19925;-68
2022/08/14 08:19:11;;;;;;;3.22;2.88;;;;;;;19.75;64.61;94104.53;4169192;28;20044;-69
2022/08/14 08:21:15;;;;;;;;;;;;;;;19.95;64.38;94093.56;4161215;28;20045;-69
2022/08/14 08:23:20;;;;;;;3.60;2.80;;;;;;;20.18;63.51;94097.25;4147926;28;20304;-69
2022/08/14 08:25:33;;;;;;;7.57;4.20;;;;;;;20.20;63.49;94092.53;4142526;28;20133;-68
2022/08/14 08:27:40;;;;;;;6.72;5.40;;;;;;;20.07;65.44;94092.75;4160612;28;20053;-68
2022/08/14 08:29:45;;;;;;;5.18;4.43;;;;;;;19.59;66.61;94097.22;4159776;28;20046;-69
2022/08/14 08:31:51;;;;;;;5.93;3.90;;;;;;;19.06;68.09;94090.03;4159571;28;20045;-68
2022/08/14 08:33:53;;;;;;;5.18;4.30;;;;;;;19.11;68.37;94096.31;4174270;28;20063;-69
2022/08/14 08:36:02;;;;;;;7.00;4.93;;;;;;;18.98;68.62;94091.19;4175341;28;20111;-67
2022/08/14 08:38:07;;;;;;;5.40;4.10;;;;;;;19.14;68.89;94093.19;4174696;28;20140;-67
2022/08/14 08:40:35;;;;;;;4.97;4.22;;;;;;;19.45;67.98;94099.28;4159367;28;20052;-68
2022/08/14 08:42:43;;;;;;;5.70;4.10;;;;;;;19.61;66.67;94093.28;4146477;28;20504;-69
2022/08/14 08:44:55;;;;;;;4.85;3.92;;;;;;;19.80;65.93;94091.38;4175366;28;20143;-68
2022/08/14 08:47:00;;;;;;;6.75;5.10;;;;;;;19.73;67.10;94089.88;4174786;28;20186;-68
2022/08/14 08:49:04;;;;;;;6.03;5.38;;;;;;;19.73;67.35;94089.88;4175189;28;20076;-67
2022/08/14 08:51:08;;;;;;;5.88;5.03;;;;;;;19.42;68.26;94097.91;4175151;28;20045;-69
2022/08/14 08:53:12;;;;;;;5.72;4.68;;;;;;;19.48;69.09;94090.84;4164115;28;20065;-68
2022/08/14 08:55:14;;;;;;;6.45;4.25;;;;;;;19.74;68.26;94083.50;4171846;28;20067;-68
2022/08/14 08:57:17;;;;;;;3.67;3.00;;;;;;;19.99;65.95;94085.94;4171346;28;20426;-69
2022/08/14 08:59:30;;;;;;;5.63;3.63;;;;;;;20.28;66.03;94088.66;4159684;28;20049;-69
2022/08/14 09:01:35;;;;;;;3.75;2.88;;;;;;;20.54;65.14;94088.16;4165494;28;20156;-68
2022/08/14 09:03:36;;;;;;;6.03;4.35;;;;;;;20.72;64.84;94073.91;4165223;28;20107;-69
2022/08/14 09:05:50;;;;;;;4.40;3.28;;;;;;;20.17;64.84;94083.13;4170470;28;20453;-69
2022/08/14 09:08:08;;;;;;;4.70;3.60;;;;;;;20.01;66.32;94073.22;4161140;28;20057;-68
2022/08/14 09:10:31;;;;;;;3.88;3.40;;;;;;;19.96;66.04;94073.94;4168069;28;20072;-69
2022/08/14 09:12:34;;;;;;;3.65;3.35;;;;;;;19.85;66.21;94074.72;4178303;28;20059;-69
2022/08/14 09:14:35;;;;;;;5.97;4.45;;;;;;;19.90;66.74;94077.50;4177416;28;20163;-70
2022/08/14 09:16:41;;;;;;;5.32;3.80;;;;;;;20.21;66.13;94057.69;4177836;28;20102;-69
2022/08/14 09:18:49;;;;;;;4.30;3.40;;;;;;;20.45;64.66;94069.06;4160925;28;20073;-69
2022/08/14 09:21:00;;;;;;;5.18;4.45;;;;;;;20.57;65.04;94060.28;4165164;28;20468;-69
2022/08/14 09:23:03;;;;;;;6.55;5.30;;;;;;;20.60;65.41;94065.16;4164808;28;20552;-68
2022/08/14 09:25:08;;;;;;;9.25;5.55;;;;;;;20.78;64.91;94066.81;4176888;28;20633;-68
2022/08/14 09:27:11;;;;;;;5.18;4.68;;;;;;;20.95;63.67;94051.72;4177956;28;20160;-70
2022/08/14 09:29:23;;;;;;;8.05;5.55;;;;;;;21.16;63.52;94052.06;4177425;28;20114;-67
2022/08/14 09:31:30;;;;;;;5.32;4.80;;;;;;;21.34;63.16;94061.66;4177686;28;20075;-68
2022/08/14 09:34:06;;;;;;;5.15;4.65;;;;;;;21.51;62.60;94054.53;4162821;28;20060;-69
2022/08/14 09:36:50;;;;;;;7.07;4.95;;;;;;;21.53;61.77;94068.44;4177914;28;20268;-69
2022/08/14 09:39:10;;;;;;;7.13;4.90;;;;;;;20.98;63.28;94061.88;4156813;28;20041;-68
2022/08/14 09:41:42;;;;;;;6.22;4.78;;;;;;;21.00;63.86;94073.09;4156151;28;20445;-68
2022/08/14 09:44:17;;;;;;;8.45;5.15;;;;;;;20.95;63.93;94064.19;4162635;28;20441;-69
2022/08/14 09:46:26;;;;;;;5.30;4.80;;;;;;;20.93;63.59;94063.63;4151175;28;20103;-69
2022/08/14 09:48:28;;;;;;;9.27;5.00;;;;;;;20.66;64.46;94059.69;4149226;28;20466;-69
2022/08/14 09:50:44;;;;;;;6.38;5.00;;;;;;;20.81;65.31;94064.50;4176088;28;20479;-69
2022/08/14 09:53:02;;;;;;;6.38;5.65;;;;;;;20.41;66.95;94067.97;4176493;28;20057;-67
2022/08/14 09:55:17;;;;;;;5.95;4.60;;;;;;;20.41;66.49;94067.97;4176575;28;20059;-68
2022/08/14 09:57:31;;;;;;;5.35;4.18;;;;;;;20.52;66.36;94057.50;4145186;28;20081;-69
2022/08/14 09:59:44;;;;;;;6.32;4.75;;;;;;;20.43;65.69;94060.56;4177519;28;20060;-66
2022/08/14 10:01:46;;;;;;;6.88;4.40;;;;;;;20.29;65.97;94053.88;4176738;28;20053;-69
2022/08/14 10:03:56;;;;;;;4.32;3.92;;;;;;;20.15;65.64;94066.59;4176906;28;20049;-68
2022/08/14 10:06:07;;;;;;;4.75;4.35;;;;;;;20.21;65.80;94059.53;4176563;28;20411;-67
2022/08/14 10:08:19;;;;;;;4.72;4.15;;;;;;;20.62;66.16;94055.06;4162848;28;20069;-68
2022/08/14 10:10:36;;;;;;;4.88;3.97;;;;;;;20.79;64.24;94053.25;4160627;28;20115;-66
2022/08/14 10:12:49;;;;;;;5.55;4.40;;;;;;;20.77;63.52;94055.34;4154551;28;20508;-68
2022/08/14 10:14:58;;;;;;;5.47;4.60;;;;;;;20.94;63.79;94059.94;4161299;28;20041;-68